Time;durP1;ratioP1;P1;durP2;ratioP2;P2;SDS_P1;SDS_P2;PMS_P1;PMS_P2;Temp;Humidity;BMP_temperature;BMP_pressure;BME280_temperature;BME280_humidity;BME280_pressure;Samples;Min_cycle;Max_cycle;Signal;HPM_P1;HPM_P2
2021/09/09 00:01:18;;;;;;;17.80;9.55;;;;;;;;;;5052362;28;20032;-88
2021/09/09 00:03:43;;;;;;;16.30;9.18;;;;;;;;;;5052750;28;20051;-88
2021/09/09 00:06:09;;;;;;;15.23;8.90;;;;;;;;;;5052652;28;20460;-87
2021/09/09 00:08:34;;;;;;;17.58;10.48;;;;;;;;;;5054002;28;20039;-87
2021/09/09 00:10:59;;;;;;;20.70;10.10;;;;;;;;;;5053794;28;20021;-88
2021/09/09 00:13:24;;;;;;;16.70;9.68;;;;;;;;;;5086217;28;20059;-88
2021/09/09 00:15:50;;;;;;;20.95;10.10;;;;;;;;;;5053832;28;20021;-87
2021/09/09 00:18:15;;;;;;;16.42;9.88;;;;;;;;;;5052690;28;20063;-88
2021/09/09 00:20:40;;;;;;;18.38;10.32;;;;;;;;;;5052545;28;20025;-88
2021/09/09 00:23:05;;;;;;;21.85;10.15;;;;;;;;;;5085899;28;20021;-87
2021/09/09 00:25:31;;;;;;;17.08;9.35;;;;;;;;;;5085296;28;20120;-88
2021/09/09 00:27:56;;;;;;;16.45;9.70;;;;;;;;;;5050290;28;20021;-88
2021/09/09 00:30:21;;;;;;;16.75;9.75;;;;;;;;;;5050953;28;20044;-88
2021/09/09 00:32:47;;;;;;;20.40;9.98;;;;;;;;;;5052285;28;20028;-88
2021/09/09 00:35:12;;;;;;;16.83;9.25;;;;;;;;;;5051985;28;20025;-88
2021/09/09 00:37:37;;;;;;;17.98;10.45;;;;;;;;;;5052965;28;20384;-88
2021/09/09 00:40:03;;;;;;;17.17;9.90;;;;;;;;;;5052048;28;20147;-88
2021/09/09 00:42:28;;;;;;;16.55;9.88;;;;;;;;;;5053343;28;20025;-88
2021/09/09 00:44:53;;;;;;;17.33;9.00;;;;;;;;;;5051732;28;20020;-88
2021/09/09 00:47:19;;;;;;;16.40;9.02;;;;;;;;;;5051047;28;20104;-88
2021/09/09 00:49:44;;;;;;;16.55;9.48;;;;;;;;;;5051868;28;20415;-88
2021/09/09 00:52:10;;;;;;;17.75;9.80;;;;;;;;;;5052984;28;20017;-88
2021/09/09 00:54:36;;;;;;;19.38;9.98;;;;;;;;;;5053209;28;20020;-88
2021/09/09 00:57:02;;;;;;;20.17;10.18;;;;;;;;;;5053255;28;20027;-87
2021/09/09 00:59:28;;;;;;;16.25;10.05;;;;;;;;;;5052825;28;20049;-88
2021/09/09 01:01:57;;;;;;;18.65;9.88;;;;;;;;;;5085476;28;20074;-88
2021/09/09 01:04:22;;;;;;;17.40;9.25;;;;;;;;;;5052692;28;20368;-88
2021/09/09 01:06:47;;;;;;;21.75;10.45;;;;;;;;;;5052966;28;20013;-87
2021/09/09 01:09:13;;;;;;;16.30;9.50;;;;;;;;;;5085133;28;20045;-88
2021/09/09 01:11:38;;;;;;;19.55;9.73;;;;;;;;;;5051851;28;20103;-88
2021/09/09 01:14:08;;;;;;;17.08;10.02;;;;;;;;;;5051578;28;20032;-88
2021/09/09 01:16:34;;;;;;;16.75;9.25;;;;;;;;;;5085418;28;20055;-88
2021/09/09 01:18:59;;;;;;;17.42;10.02;;;;;;;;;;5052560;28;20425;-88
2021/09/09 01:21:24;;;;;;;19.17;10.25;;;;;;;;;;5052629;28;20048;-88
2021/09/09 01:23:53;;;;;;;16.35;9.60;;;;;;;;;;5052723;28;20044;-88
2021/09/09 01:26:18;;;;;;;18.88;10.68;;;;;;;;;;5050804;28;20144;-88
2021/09/09 01:28:43;;;;;;;17.30;9.95;;;;;;;;;;5051353;28;20052;-88
2021/09/09 01:31:08;;;;;;;15.02;9.18;;;;;;;;;;5051428;28;20048;-88
2021/09/09 01:33:34;;;;;;;18.38;9.60;;;;;;;;;;5051584;28;20375;-88
2021/09/09 01:35:59;;;;;;;17.33;10.43;;;;;;;;;;5051227;28;20021;-88
2021/09/09 01:38:24;;;;;;;17.63;10.15;;;;;;;;;;5051362;28;20020;-88
2021/09/09 01:40:49;;;;;;;18.88;10.27;;;;;;;;;;5051383;28;20468;-88
2021/09/09 01:43:15;;;;;;;17.23;9.52;;;;;;;;;;5050923;28;20021;-88
2021/09/09 01:45:40;;;;;;;19.73;10.07;;;;;;;;;;5052341;28;20024;-88
2021/09/09 01:48:06;;;;;;;17.80;10.00;;;;;;;;;;5051169;28;20017;-86
2021/09/09 01:50:31;;;;;;;17.77;10.15;;;;;;;;;;5052753;28;20112;-88
2021/09/09 01:52:56;;;;;;;19.55;9.70;;;;;;;;;;5051191;28;20423;-88
2021/09/09 01:55:21;;;;;;;18.35;9.68;;;;;;;;;;5051175;28;20032;-88
2021/09/09 01:57:47;;;;;;;17.15;9.98;;;;;;;;;;5051177;28;20017;-87
2021/09/09 02:00:12;;;;;;;18.23;10.27;;;;;;;;;;5054947;28;20017;-88
2021/09/09 02:02:38;;;;;;;19.17;10.38;;;;;;;;;;5055908;28;20013;-88
2021/09/09 02:05:03;;;;;;;18.88;9.90;;;;;;;;;;5054978;28;20024;-88
2021/09/09 02:07:28;;;;;;;15.95;9.70;;;;;;;;;;5056455;28;20159;-87
2021/09/09 02:09:53;;;;;;;17.50;10.13;;;;;;;;;;5054838;28;20009;-86
2021/09/09 02:12:19;;;;;;;16.23;9.23;;;;;;;;;;5055141;28;20461;-88
2021/09/09 02:14:44;;;;;;;16.92;9.77;;;;;;;;;;5054876;28;20052;-88
2021/09/09 02:17:10;;;;;;;17.70;9.68;;;;;;;;;;5054432;28;20023;-88
2021/09/09 02:19:35;;;;;;;17.75;10.18;;;;;;;;;;5054813;28;20044;-88
2021/09/09 02:22:00;;;;;;;19.08;10.68;;;;;;;;;;5055985;28;20048;-88
2021/09/09 02:24:26;;;;;;;19.00;10.13;;;;;;;;;;5054890;28;20055;-87
2021/09/09 02:26:51;;;;;;;18.35;10.98;;;;;;;;;;5054612;28;20492;-88
2021/09/09 02:29:16;;;;;;;18.17;10.20;;;;;;;;;;5054171;28;20017;-88
2021/09/09 02:31:41;;;;;;;21.50;11.02;;;;;;;;;;5054639;28;20029;-88
2021/09/09 02:34:06;;;;;;;17.42;9.90;;;;;;;;;;5054342;28;20025;-88
2021/09/09 02:36:32;;;;;;;26.90;10.10;;;;;;;;;;5054562;28;20028;-88
2021/09/09 02:38:58;;;;;;;18.10;9.82;;;;;;;;;;5053899;28;20031;-87
2021/09/09 02:41:23;;;;;;;22.92;9.77;;;;;;;;;;5054526;28;20024;-87
2021/09/09 02:43:48;;;;;;;18.77;9.98;;;;;;;;;;5054413;28;20025;-88
2021/09/09 02:46:13;;;;;;;18.65;10.30;;;;;;;;;;5054334;28;20025;-88
2021/09/09 02:48:39;;;;;;;17.00;10.15;;;;;;;;;;5054099;28;20029;-88
2021/09/09 02:51:04;;;;;;;19.13;9.95;;;;;;;;;;5054179;28;20481;-88
2021/09/09 02:53:29;;;;;;;18.23;10.10;;;;;;;;;;5055656;28;20024;-88
2021/09/09 02:55:54;;;;;;;15.98;9.48;;;;;;;;;;5055628;28;20017;-88
2021/09/09 02:58:19;;;;;;;17.27;9.68;;;;;;;;;;5055262;28;20024;-88
2021/09/09 03:00:45;;;;;;;17.20;9.40;;;;;;;;;;5053606;28;20033;-88
2021/09/09 03:03:10;;;;;;;22.25;10.57;;;;;;;;;;5055205;28;20460;-88
2021/09/09 03:05:35;;;;;;;21.88;10.73;;;;;;;;;;5054189;28;20013;-88
2021/09/09 03:08:00;;;;;;;23.42;10.20;;;;;;;;;;5053468;28;20040;-87
2021/09/09 03:10:26;;;;;;;21.58;10.00;;;;;;;;;;5052971;28;20384;-88
2021/09/09 03:12:51;;;;;;;19.63;9.88;;;;;;;;;;5055074;28;20021;-88
2021/09/09 03:15:16;;;;;;;18.08;9.48;;;;;;;;;;5054239;28;20021;-88
2021/09/09 03:17:41;;;;;;;16.23;9.68;;;;;;;;;;5053661;28;20044;-88
2021/09/09 03:20:07;;;;;;;19.30;10.20;;;;;;;;;;5053827;28;20507;-87
2021/09/09 03:22:32;;;;;;;16.48;9.93;;;;;;;;;;5053564;28;20032;-88
2021/09/09 03:24:57;;;;;;;19.08;10.38;;;;;;;;;;5053689;28;20013;-87
2021/09/09 03:27:23;;;;;;;17.92;10.60;;;;;;;;;;5053649;28;20013;-88
2021/09/09 03:29:48;;;;;;;16.90;10.30;;;;;;;;;;5054931;28;20028;-88
2021/09/09 03:32:13;;;;;;;18.67;10.02;;;;;;;;;;5053463;28;20082;-88
2021/09/09 03:34:38;;;;;;;18.83;9.57;;;;;;;;;;5053765;28;20025;-88
2021/09/09 03:37:03;;;;;;;18.63;10.00;;;;;;;;;;5053046;28;20035;-88
2021/09/09 03:39:29;;;;;;;18.55;10.00;;;;;;;;;;5054566;28;20049;-88
2021/09/09 03:41:54;;;;;;;16.35;9.50;;;;;;;;;;5053296;28;20108;-88
2021/09/09 03:44:19;;;;;;;20.05;10.35;;;;;;;;;;5054203;28;20028;-88
2021/09/09 03:46:44;;;;;;;15.63;9.80;;;;;;;;;;5054662;28;20529;-88
2021/09/09 03:49:09;;;;;;;21.15;9.85;;;;;;;;;;5052956;28;20146;-87
2021/09/09 03:51:35;;;;;;;18.38;9.60;;;;;;;;;;5053106;28;20055;-88
2021/09/09 03:54:00;;;;;;;23.25;11.43;;;;;;;;;;5053099;28;20074;-88
2021/09/09 03:56:25;;;;;;;20.52;11.38;;;;;;;;;;5053965;28;20017;-88
2021/09/09 03:58:50;;;;;;;20.02;10.50;;;;;;;;;;5054134;28;20028;-88
2021/09/09 04:01:15;;;;;;;16.30;9.68;;;;;;;;;;5051560;28;20545;-88
2021/09/09 04:03:41;;;;;;;17.55;10.55;;;;;;;;;;5051544;28;20036;-88
2021/09/09 04:06:06;;;;;;;18.65;10.27;;;;;;;;;;5051450;28;20392;-88
2021/09/09 04:08:31;;;;;;;15.52;9.75;;;;;;;;;;5051038;28;20021;-88
2021/09/09 04:10:56;;;;;;;19.60;10.40;;;;;;;;;;5051262;28;20043;-88
2021/09/09 04:13:22;;;;;;;17.38;9.93;;;;;;;;;;5052130;28;20534;-88
2021/09/09 04:15:47;;;;;;;19.00;10.27;;;;;;;;;;5050883;28;20571;-87
2021/09/09 04:18:12;;;;;;;18.30;9.55;;;;;;;;;;5051700;28;20112;-88
2021/09/09 04:20:37;;;;;;;19.35;10.55;;;;;;;;;;5052231;28;20108;-88
2021/09/09 04:23:02;;;;;;;18.35;10.48;;;;;;;;;;5051986;28;20017;-88
2021/09/09 04:25:28;;;;;;;16.58;9.40;;;;;;;;;;5051120;28;20025;-88
2021/09/09 04:27:53;;;;;;;18.13;9.93;;;;;;;;;;5050374;28;20021;-88
2021/09/09 04:30:18;;;;;;;16.02;9.98;;;;;;;;;;5052567;28;20036;-87
2021/09/09 04:32:43;;;;;;;16.48;9.55;;;;;;;;;;5052504;28;20016;-88
2021/09/09 04:35:09;;;;;;;16.75;10.05;;;;;;;;;;5052038;28;20493;-87
2021/09/09 04:37:35;;;;;;;18.15;10.30;;;;;;;;;;5052019;28;20021;-88
2021/09/09 04:40:00;;;;;;;18.65;10.23;;;;;;;;;;5052322;28;20017;-87
2021/09/09 04:42:25;;;;;;;22.65;11.23;;;;;;;;;;5052100;28;20119;-88
2021/09/09 04:44:50;;;;;;;21.10;10.95;;;;;;;;;;5052016;28;20103;-88
2021/09/09 04:47:15;;;;;;;17.63;9.70;;;;;;;;;;5051912;28;20479;-88
2021/09/09 04:49:41;;;;;;;18.23;9.60;;;;;;;;;;5053215;28;20103;-88
2021/09/09 04:52:06;;;;;;;19.13;10.27;;;;;;;;;;5053234;28;20383;-87
2021/09/09 04:54:31;;;;;;;20.58;10.32;;;;;;;;;;5052045;28;20021;-88
2021/09/09 04:56:56;;;;;;;18.00;10.55;;;;;;;;;;5085722;28;20024;-88
2021/09/09 04:59:22;;;;;;;17.58;9.73;;;;;;;;;;5051647;28;20514;-87
2021/09/09 05:01:47;;;;;;;18.33;10.77;;;;;;;;;;5052617;28;20043;-88
2021/09/09 05:04:12;;;;;;;18.10;10.55;;;;;;;;;;5053371;28;20055;-88
2021/09/09 05:06:37;;;;;;;17.10;9.57;;;;;;;;;;5085469;28;20104;-87
2021/09/09 05:09:02;;;;;;;26.30;11.35;;;;;;;;;;5051901;28;20112;-88
2021/09/09 05:11:28;;;;;;;16.17;9.45;;;;;;;;;;5051637;28;20063;-88
2021/09/09 05:13:53;;;;;;;17.38;9.60;;;;;;;;;;5052762;28;20017;-88
2021/09/09 05:16:18;;;;;;;21.38;10.45;;;;;;;;;;5052985;28;20110;-88
2021/09/09 05:18:43;;;;;;;19.25;10.20;;;;;;;;;;5051763;28;20108;-88
2021/09/09 05:21:08;;;;;;;21.27;11.40;;;;;;;;;;5051273;28;20024;-88
2021/09/09 05:23:34;;;;;;;18.38;10.68;;;;;;;;;;5051627;28;20118;-88
2021/09/09 05:25:59;;;;;;;19.88;11.23;;;;;;;;;;5051513;28;20101;-88
2021/09/09 05:28:24;;;;;;;19.83;10.90;;;;;;;;;;5051478;28;20361;-88
2021/09/09 05:30:49;;;;;;;20.50;10.10;;;;;;;;;;5050872;28;20066;-88
2021/09/09 05:33:15;;;;;;;19.10;10.45;;;;;;;;;;5053407;28;20911;-88
2021/09/09 05:35:40;;;;;;;17.00;10.02;;;;;;;;;;5055590;28;20392;-88
2021/09/09 05:38:06;;;;;;;19.67;9.48;;;;;;;;;;5056758;28;20407;-88
2021/09/09 05:40:31;;;;;;;17.73;10.13;;;;;;;;;;5055673;28;20021;-88
2021/09/09 05:42:56;;;;;;;20.30;9.90;;;;;;;;;;5055548;28;20354;-88
2021/09/09 05:45:21;;;;;;;15.52;9.23;;;;;;;;;;5056609;28;20021;-88
2021/09/09 05:47:47;;;;;;;16.95;9.55;;;;;;;;;;5055335;28;20023;-88
2021/09/09 05:50:12;;;;;;;23.55;11.35;;;;;;;;;;5056694;28;20031;-88
2021/09/09 05:52:37;;;;;;;26.85;10.82;;;;;;;;;;5055028;28;20074;-88
2021/09/09 05:55:03;;;;;;;23.23;11.20;;;;;;;;;;5055430;28;20469;-88
2021/09/09 05:57:28;;;;;;;21.58;11.45;;;;;;;;;;5055132;28;20017;-88
2021/09/09 05:59:53;;;;;;;22.25;11.43;;;;;;;;;;5054724;28;20044;-88
2021/09/09 06:02:19;;;;;;;19.90;11.43;;;;;;;;;;5055069;28;20112;-88
2021/09/09 06:04:45;;;;;;;18.50;11.30;;;;;;;;;;5056304;28;20117;-88
2021/09/09 06:07:11;;;;;;;20.20;11.00;;;;;;;;;;5055783;28;20017;-88
2021/09/09 06:09:37;;;;;;;18.65;10.75;;;;;;;;;;5054916;28;20376;-88
2021/09/09 06:12:02;;;;;;;20.63;10.38;;;;;;;;;;5054875;28;20013;-88
2021/09/09 06:14:29;;;;;;;21.00;10.43;;;;;;;;;;5054924;28;20377;-88
2021/09/09 06:16:54;;;;;;;19.75;9.70;;;;;;;;;;5056090;28;20055;-88
2021/09/09 06:19:19;;;;;;;18.92;10.15;;;;;;;;;;5054837;28;20056;-88
2021/09/09 06:21:44;;;;;;;17.45;10.10;;;;;;;;;;5055339;28;20044;-88
2021/09/09 06:24:10;;;;;;;17.75;9.85;;;;;;;;;;5055073;28;20052;-87
2021/09/09 06:26:35;;;;;;;18.92;9.88;;;;;;;;;;5054003;28;20017;-88
2021/09/09 06:29:01;;;;;;;19.27;9.93;;;;;;;;;;5054192;28;20100;-88
2021/09/09 06:31:26;;;;;;;18.42;9.70;;;;;;;;;;5054145;28;20495;-88
2021/09/09 06:33:51;;;;;;;18.13;9.73;;;;;;;;;;5054215;28;20021;-88
2021/09/09 06:36:16;;;;;;;18.40;9.57;;;;;;;;;;5054211;28;20481;-88
2021/09/09 06:38:42;;;;;;;17.75;9.80;;;;;;;;;;5054437;28;20107;-88
2021/09/09 06:41:07;;;;;;;19.65;9.60;;;;;;;;;;5054335;28;20017;-87
2021/09/09 06:43:32;;;;;;;15.48;9.32;;;;;;;;;;5054459;28;20600;-88
2021/09/09 06:45:57;;;;;;;23.02;10.80;;;;;;;;;;5054068;28;20071;-88
2021/09/09 06:48:22;;;;;;;23.77;10.65;;;;;;;;;;5054254;28;20025;-88
2021/09/09 06:50:48;;;;;;;21.80;10.75;;;;;;;;;;5053455;28;20029;-88
2021/09/09 06:53:13;;;;;;;18.30;10.20;;;;;;;;;;5055324;28;20013;-88
2021/09/09 06:55:38;;;;;;;18.65;9.43;;;;;;;;;;5054248;28;20112;-88
2021/09/09 06:58:04;;;;;;;21.55;11.32;;;;;;;;;;5053739;28;20072;-88
2021/09/09 07:00:30;;;;;;;20.38;11.05;;;;;;;;;;5055192;28;20021;-88
2021/09/09 07:02:55;;;;;;;19.20;10.88;;;;;;;;;;5054699;28;20016;-88
2021/09/09 07:05:20;;;;;;;16.90;10.18;;;;;;;;;;5053951;28;20079;-88
2021/09/09 07:07:45;;;;;;;15.85;9.43;;;;;;;;;;5054032;28;20075;-88
2021/09/09 07:10:11;;;;;;;18.95;10.40;;;;;;;;;;5053829;28;20100;-88
2021/09/09 07:12:36;;;;;;;23.08;9.77;;;;;;;;;;5055149;28;20094;-88
2021/09/09 07:15:01;;;;;;;17.88;10.43;;;;;;;;;;5054870;28;20017;-88
2021/09/09 07:17:27;;;;;;;22.30;9.68;;;;;;;;;;5054941;28;20047;-88
2021/09/09 07:19:52;;;;;;;20.27;10.38;;;;;;;;;;5053467;28;20031;-88
2021/09/09 07:22:17;;;;;;;16.60;9.20;;;;;;;;;;5087185;28;20024;-88
2021/09/09 07:24:42;;;;;;;15.63;8.68;;;;;;;;;;5055023;28;20017;-88
2021/09/09 07:27:08;;;;;;;16.85;9.27;;;;;;;;;;5053134;28;20167;-88
2021/09/09 07:29:33;;;;;;;19.55;10.07;;;;;;;;;;5054209;28;20017;-89
2021/09/09 07:31:58;;;;;;;16.50;10.02;;;;;;;;;;5053568;28;20028;-87
2021/09/09 07:34:25;;;;;;;19.05;11.55;;;;;;;;;;5053421;28;20108;-88
2021/09/09 07:36:50;;;;;;;23.55;11.13;;;;;;;;;;5053364;28;20114;-88
2021/09/09 07:39:16;;;;;;;19.48;10.57;;;;;;;;;;5053166;28;20453;-88
2021/09/09 07:41:41;;;;;;;22.00;12.45;;;;;;;;;;5053121;28;20028;-88
2021/09/09 07:44:06;;;;;;;19.02;10.13;;;;;;;;;;5053007;28;20028;-88
2021/09/09 07:46:32;;;;;;;16.58;9.50;;;;;;;;;;5053299;28;20457;-88
2021/09/09 07:48:57;;;;;;;18.70;10.30;;;;;;;;;;5053174;28;20112;-88
2021/09/09 07:51:22;;;;;;;16.65;9.40;;;;;;;;;;5052876;28;20028;-88
2021/09/09 07:53:48;;;;;;;25.55;10.70;;;;;;;;;;5054015;28;20124;-88
2021/09/09 07:56:13;;;;;;;19.33;10.73;;;;;;;;;;5052271;28;20025;-88
2021/09/09 07:58:38;;;;;;;25.88;11.07;;;;;;;;;;5052963;28;20055;-88
2021/09/09 08:01:04;;;;;;;18.13;10.32;;;;;;;;;;5052331;28;20020;-87
2021/09/09 08:03:29;;;;;;;17.20;10.27;;;;;;;;;;5052785;28;20021;-87
2021/09/09 08:05:55;;;;;;;23.85;12.15;;;;;;;;;;5054166;28;20017;-87
2021/09/09 08:08:20;;;;;;;23.63;11.35;;;;;;;;;;5054057;28;20021;-88
2021/09/09 08:10:45;;;;;;;25.67;10.50;;;;;;;;;;5052905;28;20126;-88
2021/09/09 08:13:10;;;;;;;19.80;10.75;;;;;;;;;;5051896;28;20025;-88
2021/09/09 08:15:37;;;;;;;18.30;9.82;;;;;;;;;;5053922;28;20111;-89
2021/09/09 08:18:02;;;;;;;20.25;10.80;;;;;;;;;;5053848;28;20029;-87
2021/09/09 08:20:27;;;;;;;23.63;12.75;;;;;;;;;;5053438;28;20656;-88
2021/09/09 08:22:53;;;;;;;25.55;12.48;;;;;;;;;;5052513;28;20020;-88
2021/09/09 08:25:18;;;;;;;28.10;12.85;;;;;;;;;;5053666;28;20111;-88
2021/09/09 08:27:43;;;;;;;28.50;13.20;;;;;;;;;;5053551;28;20453;-88
2021/09/09 08:30:09;;;;;;;24.05;13.55;;;;;;;;;;5052125;28;20428;-88
2021/09/09 08:32:34;;;;;;;27.05;13.48;;;;;;;;;;5052350;28;20020;-88
2021/09/09 08:34:59;;;;;;;20.73;11.63;;;;;;;;;;5052544;28;20024;-87
2021/09/09 08:37:24;;;;;;;20.35;11.40;;;;;;;;;;5051547;28;20488;-88
2021/09/09 08:39:50;;;;;;;23.58;12.25;;;;;;;;;;5052258;28;20013;-89
2021/09/09 08:42:16;;;;;;;24.27;13.25;;;;;;;;;;5052331;28;20055;-88
2021/09/09 08:44:41;;;;;;;22.30;12.65;;;;;;;;;;5053186;28;20017;-88
2021/09/09 08:47:10;;;;;;;27.17;12.88;;;;;;;;;;5052132;28;20025;-88
2021/09/09 08:49:35;;;;;;;25.52;11.98;;;;;;;;;;5050937;28;20024;-89
2021/09/09 08:52:03;;;;;;;25.70;11.02;;;;;;;;;;5052602;28;20032;-87
2021/09/09 08:54:29;;;;;;;22.30;11.70;;;;;;;;;;5051902;28;20029;-88
2021/09/09 08:56:54;;;;;;;20.75;11.10;;;;;;;;;;5052170;28;20028;-89
2021/09/09 08:59:19;;;;;;;22.33;11.43;;;;;;;;;;5051868;28;20102;-88
2021/09/09 09:02:04;;;;;;;18.73;10.73;;;;;;;;;;5048588;28;20031;-88
2021/09/09 09:04:30;;;;;;;20.30;10.30;;;;;;;;;;5051146;28;21017;-88
2021/09/09 09:06:55;;;;;;;22.85;10.45;;;;;;;;;;5051549;28;20135;-89
2021/09/09 09:09:21;;;;;;;18.95;9.90;;;;;;;;;;5051230;28;20380;-89
2021/09/09 09:11:49;;;;;;;23.05;11.77;;;;;;;;;;5052898;28;20023;-88
2021/09/09 09:14:17;;;;;;;21.35;10.57;;;;;;;;;;5051834;28;20511;-88
2021/09/09 09:16:47;;;;;;;19.27;10.77;;;;;;;;;;5051512;28;20537;-88
2021/09/09 09:19:13;;;;;;;21.63;11.32;;;;;;;;;;5053065;28;20075;-88
2021/09/09 09:21:44;;;;;;;21.48;10.15;;;;;;;;;;5051549;28;20453;-89
2021/09/09 09:24:10;;;;;;;18.27;10.20;;;;;;;;;;5051777;28;20848;-89
2021/09/09 09:26:35;;;;;;;19.45;10.50;;;;;;;;;;5051611;28;20013;-88
2021/09/09 09:29:00;;;;;;;19.58;11.07;;;;;;;;;;5051353;28;20070;-89
2021/09/09 09:31:36;;;;;;;21.08;10.38;;;;;;;;;;5051354;28;20029;-89
2021/09/09 09:34:02;;;;;;;21.35;10.38;;;;;;;;;;5051332;28;20024;-88
2021/09/09 09:36:29;;;;;;;18.23;11.32;;;;;;;;;;5051718;28;20013;-88
2021/09/09 09:38:56;;;;;;;17.48;9.43;;;;;;;;;;5052787;28;20028;-88
2021/09/09 09:41:23;;;;;;;23.73;11.10;;;;;;;;;;5052424;28;20033;-89
2021/09/09 09:43:49;;;;;;;20.30;10.05;;;;;;;;;;5051797;28;20020;-89
2021/09/09 09:46:32;;;;;;;16.60;9.77;;;;;;;;;;5051479;28;20179;-88
2021/09/09 09:49:15;;;;;;;17.63;10.10;;;;;;;;;;5052653;28;20021;-88
2021/09/09 09:51:42;;;;;;;17.20;9.70;;;;;;;;;;5038660;28;20051;-89
2021/09/09 09:54:08;;;;;;;16.83;9.88;;;;;;;;;;5052779;28;20017;-88
2021/09/09 09:56:35;;;;;;;16.15;10.05;;;;;;;;;;5051061;28;20017;-89
2021/09/09 09:59:00;;;;;;;15.70;9.40;;;;;;;;;;5051235;28;20763;-89
2021/09/09 10:01:25;;;;;;;17.17;8.13;;;;;;;;;;5052146;28;20139;-89
2021/09/09 10:03:51;;;;;;;12.18;8.63;;;;;;;;;;5051557;28;20096;-88
2021/09/09 10:06:16;;;;;;;17.85;9.07;;;;;;;;;;5051199;28;20021;-88
2021/09/09 10:08:41;;;;;;;17.02;8.15;;;;;;;;;;5051281;28;20029;-89
2021/09/09 10:11:06;;;;;;;21.48;9.40;;;;;;;;;;5051279;28;20437;-89
2021/09/09 10:13:31;;;;;;;16.75;8.52;;;;;;;;;;5052786;28;20037;-89
2021/09/09 10:15:57;;;;;;;15.88;9.48;;;;;;;;;;5051064;28;20021;-88
2021/09/09 10:18:22;;;;;;;16.63;9.23;;;;;;;;;;5050806;28;20060;-88
2021/09/09 10:20:47;;;;;;;16.02;8.38;;;;;;;;;;5054232;28;20021;-88
2021/09/09 10:23:14;;;;;;;16.77;9.50;;;;;;;;;;5055925;28;20491;-88
2021/09/09 10:25:53;;;;;;;17.02;8.20;;;;;;;;;;5054525;28;20024;-88
2021/09/09 10:28:43;;;;;;;12.80;8.30;;;;;;;;;;5054923;28;20028;-88
2021/09/09 10:31:13;;;;;;;15.85;9.35;;;;;;;;;;5054658;28;20020;-88
2021/09/09 10:33:43;;;;;;;16.45;9.15;;;;;;;;;;5054562;28;20021;-89
2021/09/09 10:36:27;;;;;;;14.75;8.10;;;;;;;;;;5054655;28;20021;-89
2021/09/09 10:38:52;;;;;;;15.77;8.73;;;;;;;;;;5054609;28;20029;-89
2021/09/09 10:41:26;;;;;;;13.13;8.20;;;;;;;;;;5054241;28;20779;-89
2021/09/09 10:43:51;;;;;;;12.98;8.05;;;;;;;;;;5054426;28;20017;-88
2021/09/09 10:46:17;;;;;;;12.52;7.45;;;;;;;;;;5054336;28;20435;-88
2021/09/09 10:48:44;;;;;;;14.50;8.60;;;;;;;;;;5054381;28;20029;-88
2021/09/09 10:51:12;;;;;;;15.82;7.70;;;;;;;;;;5055459;28;20059;-89
2021/09/09 10:53:41;;;;;;;12.50;7.55;;;;;;;;;;5053601;28;20024;-88
2021/09/09 10:56:11;;;;;;;13.57;8.45;;;;;;;;;;5054160;28;20021;-89
2021/09/09 10:58:40;;;;;;;12.23;7.60;;;;;;;;;;5054313;28;20060;-88
2021/09/09 11:01:05;;;;;;;13.85;8.07;;;;;;;;;;5053947;28;20025;-88
2021/09/09 11:03:40;;;;;;;13.55;8.38;;;;;;;;;;5053956;28;20020;-88
2021/09/09 11:06:09;;;;;;;12.73;7.30;;;;;;;;;;5054492;28;20028;-88
2021/09/09 11:08:35;;;;;;;12.77;7.70;;;;;;;;;;5054325;28;20434;-89
2021/09/09 11:11:01;;;;;;;17.45;7.72;;;;;;;;;;5054100;28;20021;-89
2021/09/09 11:13:27;;;;;;;13.43;8.00;;;;;;;;;;5054688;28;20062;-89
2021/09/09 11:15:53;;;;;;;17.42;7.90;;;;;;;;;;5055041;28;20021;-88
2021/09/09 11:18:32;;;;;;;15.25;7.55;;;;;;;;;;5053564;28;20460;-89
2021/09/09 11:21:17;;;;;;;12.65;8.07;;;;;;;;;;5055121;28;20021;-89
2021/09/09 11:23:42;;;;;;;21.42;9.55;;;;;;;;;;5054608;28;20069;-88
2021/09/09 11:26:13;;;;;;;18.83;9.18;;;;;;;;;;5053726;28;20052;-89
2021/09/09 11:28:38;;;;;;;15.77;8.25;;;;;;;;;;5053685;28;20062;-89
2021/09/09 11:31:16;;;;;;;17.48;9.35;;;;;;;;;;5052626;28;20029;-88
2021/09/09 11:33:48;;;;;;;13.95;8.80;;;;;;;;;;5053859;28;20017;-88
2021/09/09 11:36:14;;;;;;;15.23;9.20;;;;;;;;;;5053366;28;20013;-88
2021/09/09 11:38:39;;;;;;;18.88;10.57;;;;;;;;;;5053598;28;20087;-89
2021/09/09 11:41:05;;;;;;;22.33;12.40;;;;;;;;;;5052643;28;20060;-89
2021/09/09 11:43:30;;;;;;;20.88;11.90;;;;;;;;;;5053349;28;20476;-88
2021/09/09 11:45:56;;;;;;;20.35;11.32;;;;;;;;;;5053088;28;20032;-89
2021/09/09 11:48:24;;;;;;;22.38;11.60;;;;;;;;;;5054444;28;20025;-88
2021/09/09 11:50:49;;;;;;;20.40;11.43;;;;;;;;;;5053217;28;20017;-89
2021/09/09 11:53:21;;;;;;;18.08;11.32;;;;;;;;;;5040365;28;20024;-88
2021/09/09 11:55:46;;;;;;;;;;;;;;;;;;5054577;28;20032;-89
2021/09/09 11:58:29;;;;;;;16.83;10.35;;;;;;;;;;5052918;28;19920;-88
2021/09/09 12:00:54;;;;;;;19.27;9.63;;;;;;;;;;5054125;28;20024;-88
2021/09/09 12:03:19;;;;;;;20.45;11.23;;;;;;;;;;5054207;28;20017;-87
2021/09/09 12:05:44;;;;;;;16.42;9.38;;;;;;;;;;5054214;28;20029;-88
2021/09/09 12:08:10;;;;;;;17.25;10.35;;;;;;;;;;5052655;28;20013;-88
2021/09/09 12:10:35;;;;;;;19.73;9.95;;;;;;;;;;5054147;28;20025;-89
2021/09/09 12:13:00;;;;;;;18.50;9.98;;;;;;;;;;5052565;28;20016;-88
2021/09/09 12:15:26;;;;;;;24.25;9.52;;;;;;;;;;5053979;28;20017;-88
2021/09/09 12:17:51;;;;;;;14.60;9.65;;;;;;;;;;5052733;28;20029;-88
2021/09/09 12:20:23;;;;;;;18.35;10.15;;;;;;;;;;5053922;28;20028;-89
2021/09/09 12:22:50;;;;;;;16.92;10.43;;;;;;;;;;5051861;28;20630;-89
2021/09/09 12:25:15;;;;;;;21.95;10.82;;;;;;;;;;5052462;28;20033;-89
2021/09/09 12:28:00;;;;;;;17.42;9.52;;;;;;;;;;5053852;28;20032;-89
2021/09/09 12:30:33;;;;;;;17.23;10.10;;;;;;;;;;5052250;28;20021;-88
2021/09/09 12:33:01;;;;;;;16.35;10.45;;;;;;;;;;5053576;28;20013;-89
2021/09/09 12:35:27;;;;;;;22.75;11.88;;;;;;;;;;5052331;28;20074;-89
2021/09/09 12:37:59;;;;;;;19.05;11.55;;;;;;;;;;5052352;28;20107;-88
2021/09/09 12:40:43;;;;;;;19.40;11.75;;;;;;;;;;5086094;28;20032;-89
2021/09/09 12:43:27;;;;;;;19.23;11.90;;;;;;;;;;5055574;28;20464;-88
2021/09/09 12:45:52;;;;;;;19.38;11.23;;;;;;;;;;5052086;28;20132;-88
2021/09/09 12:48:17;;;;;;;20.73;12.18;;;;;;;;;;5052156;28;20041;-88
2021/09/09 12:51:00;;;;;;;18.15;11.38;;;;;;;;;;5052093;28;20033;-89
2021/09/09 12:53:28;;;;;;;15.43;11.60;;;;;;;;;;5040730;28;20025;-88
2021/09/09 12:55:58;;;;;;;16.50;10.73;;;;;;;;;;5053320;28;20092;-88
2021/09/09 12:58:23;;;;;;;18.02;11.75;;;;;;;;;;5039913;28;20453;-88
2021/09/09 13:00:48;;;;;;;18.45;11.50;;;;;;;;;;5053183;28;20017;-88
2021/09/09 13:03:13;;;;;;;19.60;11.15;;;;;;;;;;5053139;28;20021;-88
2021/09/09 13:05:39;;;;;;;21.63;11.55;;;;;;;;;;5052017;28;20021;-88
2021/09/09 13:08:04;;;;;;;16.92;9.88;;;;;;;;;;5051264;28;20492;-88
2021/09/09 13:10:29;;;;;;;14.88;9.15;;;;;;;;;;5053147;28;20017;-88
2021/09/09 13:12:56;;;;;;;17.33;10.15;;;;;;;;;;5051926;28;20045;-88
2021/09/09 13:15:21;;;;;;;16.40;9.80;;;;;;;;;;5051679;28;20024;-88
2021/09/09 13:17:46;;;;;;;17.08;10.20;;;;;;;;;;5051556;28;20025;-89
2021/09/09 13:20:11;;;;;;;19.58;9.90;;;;;;;;;;5051079;28;20460;-88
2021/09/09 13:22:37;;;;;;;15.68;9.02;;;;;;;;;;5051744;28;20021;-88
2021/09/09 13:25:02;;;;;;;17.67;9.48;;;;;;;;;;5052983;28;20088;-88
2021/09/09 13:27:30;;;;;;;17.00;9.55;;;;;;;;;;5051471;28;20015;-89
2021/09/09 13:29:55;;;;;;;14.52;9.30;;;;;;;;;;5051573;28;20086;-89
2021/09/09 13:32:21;;;;;;;17.33;8.98;;;;;;;;;;5051688;28;20075;-89
2021/09/09 13:34:46;;;;;;;17.73;9.60;;;;;;;;;;5052870;28;20532;-89
2021/09/09 13:37:11;;;;;;;22.17;9.68;;;;;;;;;;5051806;28;20017;-89
2021/09/09 13:39:36;;;;;;;18.42;10.45;;;;;;;;;;5051593;28;20028;-89
2021/09/09 13:42:01;;;;;;;16.85;9.70;;;;;;;;;;5052807;28;20036;-88
2021/09/09 13:44:27;;;;;;;17.05;8.60;;;;;;;;;;5051014;28;20028;-89
2021/09/09 13:46:52;;;;;;;15.52;9.02;;;;;;;;;;5051410;28;20032;-89
2021/09/09 13:49:17;;;;;;;15.65;8.95;;;;;;;;;;5052380;28;20024;-89
2021/09/09 13:51:42;;;;;;;15.35;9.10;;;;;;;;;;5051523;28;20021;-88
2021/09/09 13:54:07;;;;;;;13.88;8.43;;;;;;;;;;5053179;28;20017;-88
2021/09/09 13:56:33;;;;;;;14.82;8.30;;;;;;;;;;5056317;28;20028;-88
2021/09/09 13:58:58;;;;;;;16.45;8.68;;;;;;;;;;5056565;28;20531;-89
2021/09/09 14:01:23;;;;;;;15.25;8.52;;;;;;;;;;5055282;28;20104;-89
2021/09/09 14:03:48;;;;;;;13.00;8.18;;;;;;;;;;5055556;28;20017;-89
2021/09/09 14:06:13;;;;;;;13.60;7.75;;;;;;;;;;5055083;28;20021;-89
2021/09/09 14:08:39;;;;;;;14.77;8.60;;;;;;;;;;5055085;28;20113;-89
2021/09/09 14:11:04;;;;;;;13.85;8.60;;;;;;;;;;5056114;28;20048;-89
2021/09/09 14:13:29;;;;;;;13.02;8.27;;;;;;;;;;5054992;28;20528;-88
2021/09/09 14:15:54;;;;;;;12.43;8.10;;;;;;;;;;5054970;28;20095;-88
2021/09/09 14:18:20;;;;;;;14.88;8.07;;;;;;;;;;5055082;28;20070;-88